Terminal Aerodrome Forecast
Issued by NWS Spokane, WA

Home | Current Version | Previous Version | Text Only | Print | Product List | Glossary On
Versions: 1 2 3 4 5 6 7 8 9 10 11 12 13 14 15 16
000
FTUS46 KOTX 230226 AAA
TAFLWS
TAF AMD
KLWS 230226Z 2302/2324 VRB03KT P6SM SCT050 BKN080
      TEMPO 2302/2304 -SHRA BKN027
     FM230400 13003KT P6SM SCT080 BKN150
     FM231400 15007KT P6SM BKN150=

USA.gov is the U.S. government's official web portal to all federal, state and local government web resources and services.